createdAt,value
2023-03-13T00:01:15.017Z,100089.13
2023-03-13T00:03:41.719Z,100075.84
2023-03-13T00:06:08.703Z,100004.09
2023-03-13T00:08:35.326Z,100002.38
2023-03-13T00:11:06.853Z,100002.38
2023-03-13T00:13:34.078Z,100029.03
2023-03-13T00:16:06.307Z,100057.41
2023-03-13T00:18:33.342Z,99998.06
2023-03-13T00:21:09.589Z,99949.38
2023-03-13T00:23:37.832Z,99949.38
2023-03-13T00:26:10.277Z,99969.75
2023-03-13T00:28:38.798Z,100023.75
2023-03-13T00:31:19.022Z,99936.97
2023-03-13T00:33:47.776Z,100014.06
2023-03-13T00:36:23.561Z,99903.38
2023-03-13T00:38:50.912Z,99989.25
2023-03-13T00:41:22.710Z,99993.66
2023-03-13T00:43:49.922Z,99986.59
2023-03-13T00:46:19.255Z,99906.03
2023-03-13T00:48:46.088Z,99899.84
2023-03-13T00:51:13.928Z,99921.06
2023-03-13T00:53:40.652Z,99879.47
2023-03-13T00:56:12.690Z,99943.22
2023-03-13T00:58:41.968Z,99937.03
2023-03-13T01:01:41.027Z,99963.59
2023-03-13T01:04:12.696Z,99944.13
2023-03-13T01:06:42.878Z,99934.41
2023-03-13T01:09:12.904Z,99928.22
2023-03-13T01:11:42.224Z,99923.81
2023-03-13T01:14:12.561Z,99882.22
2023-03-13T01:16:39.595Z,99891.97
2023-03-13T01:19:13.114Z,99898.22
2023-03-13T01:21:41.514Z,99907.06
2023-03-13T01:24:08.888Z,99799.19
2023-03-13T01:26:35.547Z,99789.47
2023-03-13T01:29:02.206Z,99873.47
2023-03-13T01:31:32.767Z,99789.47
2023-03-13T01:34:02.667Z,99873.50
2023-03-13T01:36:29.868Z,99867.28
2023-03-13T01:38:58.469Z,99835.47
2023-03-13T01:41:26.821Z,99832.81
2023-03-13T01:43:55.432Z,99833.72
2023-03-13T01:46:27.067Z,99798.34
2023-03-13T01:49:07.538Z,99765.66
2023-03-13T01:51:58.325Z,99841.72
2023-03-13T01:54:29.112Z,99777.16
2023-03-13T01:57:01.771Z,99810.78
2023-03-13T01:59:33.797Z,99812.50
2023-03-13T02:02:03.106Z,99779.84
2023-03-13T02:04:35.088Z,99790.41
2023-03-13T02:07:07.416Z,99694.09
2023-03-13T02:09:35.458Z,99790.38
2023-03-13T02:12:13.622Z,99789.50
2023-03-13T02:14:43.775Z,99694.97
2023-03-13T02:17:11.340Z,99774.47
2023-03-13T02:19:43.232Z,99753.22
2023-03-13T02:22:19.324Z,99750.53
2023-03-13T02:24:52.114Z,99750.53
2023-03-13T02:27:19.040Z,99724.91
2023-03-13T02:29:46.622Z,99656.97
2023-03-13T02:32:15.577Z,99647.25
2023-03-13T02:34:44.592Z,99700.97
2023-03-13T02:37:13.770Z,99601.25
2023-03-13T02:39:45.811Z,99684.97
2023-03-13T02:42:15.680Z,99610.84
2023-03-13T02:44:44.337Z,99551.75
2023-03-13T02:47:12.687Z,99671.63
2023-03-13T02:49:39.298Z,99635.44
2023-03-13T02:52:14.817Z,99612.50
2023-03-13T02:54:46.193Z,99671.56
2023-03-13T02:57:13.113Z,99643.34
2023-03-13T02:59:40.100Z,99670.69
2023-03-13T03:02:06.678Z,99679.47
2023-03-13T03:04:33.324Z,99674.19
2023-03-13T03:06:59.952Z,99661.81
2023-03-13T03:09:26.734Z,99609.69
2023-03-13T03:11:57.790Z,99631.72
2023-03-13T03:14:27.068Z,99649.34
2023-03-13T03:16:53.724Z,99659.91
2023-03-13T03:19:20.406Z,99646.66
2023-03-13T03:21:49.404Z,99614.03
2023-03-13T03:24:18.620Z,99679.34
2023-03-13T03:26:45.226Z,99646.66
2023-03-13T03:29:19.566Z,99607.84
2023-03-13T03:31:49.316Z,99673.09
2023-03-13T03:34:16.050Z,99651.91
2023-03-13T03:36:42.604Z,99623.69
2023-03-13T03:39:09.340Z,99539.00
2023-03-13T03:41:37.350Z,99597.16
2023-03-13T03:44:05.897Z,99677.38
2023-03-13T03:46:55.930Z,99667.63
2023-03-13T03:49:24.022Z,99593.53
2023-03-13T03:51:50.628Z,99670.19
2023-03-13T03:54:23.164Z,99669.28
2023-03-13T03:56:49.702Z,99570.47
2023-03-13T03:59:16.337Z,99656.91
2023-03-13T04:02:03.378Z,99649.78
2023-03-13T04:04:31.251Z,99621.53
2023-03-13T04:07:05.030Z,99574.88
2023-03-13T04:09:33.090Z,99579.22
2023-03-13T04:12:01.418Z,99626.78
2023-03-13T04:14:30.510Z,99602.03
2023-03-13T04:16:58.309Z,99639.94
2023-03-13T04:19:25.056Z,99558.78
2023-03-13T04:21:51.633Z,99624.06
2023-03-13T04:24:19.336Z,99611.69
2023-03-13T04:26:46.056Z,99585.97
2023-03-13T04:29:14.018Z,99606.31
2023-03-13T04:32:06.926Z,99626.53
2023-03-13T04:34:57.977Z,99623.88
2023-03-13T04:37:44.924Z,99636.09
2023-03-13T04:40:23.550Z,99631.66
2023-03-13T04:43:06.209Z,99546.16
2023-03-13T04:46:11.261Z,99527.53
2023-03-13T04:49:04.049Z,99601.41
2023-03-13T04:51:56.796Z,99527.47
2023-03-13T04:54:50.992Z,99567.00
2023-03-13T04:57:38.614Z,99502.59
2023-03-13T05:00:25.485Z,99504.22
2023-03-13T05:03:27.185Z,99571.84
2023-03-13T05:06:09.486Z,99578.88
2023-03-13T05:09:03.353Z,99545.34
2023-03-13T05:11:50.329Z,99494.25
2023-03-13T05:14:25.382Z,99516.13
2023-03-13T05:17:12.604Z,99487.91
2023-03-13T05:20:11.227Z,99474.56
2023-03-13T05:22:57.193Z,99476.28
2023-03-13T05:25:36.345Z,99551.91
2023-03-13T05:28:23.255Z,99463.00
2023-03-13T05:30:49.942Z,99483.19
2023-03-13T05:33:25.584Z,99483.09
2023-03-13T05:36:15.049Z,99513.81
2023-03-13T05:39:13.783Z,99478.47
2023-03-13T05:42:00.629Z,99463.56
2023-03-13T05:44:47.707Z,99489.88
2023-03-13T05:47:32.695Z,99476.63
2023-03-13T05:50:08.687Z,99568.19
2023-03-13T05:52:51.808Z,99518.84
2023-03-13T05:55:50.568Z,99477.47
2023-03-13T05:58:35.794Z,99480.84
2023-03-13T06:01:17.353Z,99547.63
2023-03-13T06:03:50.683Z,99567.13
2023-03-13T06:06:18.447Z,99494.88
2023-03-13T06:08:54.434Z,99483.50
2023-03-13T06:11:22.794Z,99527.31
2023-03-13T06:13:52.005Z,99535.91
2023-03-13T06:16:25.287Z,99556.09
2023-03-13T06:18:55.975Z,99461.91
2023-03-13T06:21:22.611Z,99553.31
2023-03-13T06:23:49.155Z,99494.50
2023-03-13T06:26:15.689Z,99523.34
2023-03-13T06:28:42.310Z,99479.34
2023-03-13T06:31:09.017Z,99481.97
2023-03-13T06:33:35.595Z,99474.78
2023-03-13T06:36:03.197Z,99523.06
2023-03-13T06:38:30.482Z,99412.22
2023-03-13T06:40:57.144Z,99531.63
2023-03-13T06:43:24.036Z,99543.09
2023-03-13T06:45:50.657Z,99531.78
2023-03-13T06:48:17.813Z,99502.53
2023-03-13T06:50:44.620Z,99460.25
2023-03-13T06:53:17.123Z,99531.41
2023-03-13T06:55:44.330Z,99543.72
2023-03-13T06:58:21.791Z,99455.66
2023-03-13T07:00:57.477Z,99461.91
2023-03-13T07:03:24.307Z,99462.75
2023-03-13T07:05:56.699Z,99539.19
2023-03-13T07:08:25.516Z,99503.88
2023-03-13T07:10:53.085Z,99465.19
2023-03-13T07:13:21.580Z,99465.97
2023-03-13T07:15:51.521Z,99508.78
2023-03-13T07:18:18.051Z,99514.06
2023-03-13T07:20:44.815Z,99474.56
2023-03-13T07:23:11.440Z,99499.88
2023-03-13T07:25:37.986Z,99504.38
2023-03-13T07:28:04.787Z,99492.00
2023-03-13T07:30:31.410Z,99521.75
2023-03-13T07:32:58.801Z,99448.09
2023-03-13T07:35:25.436Z,99448.81
2023-03-13T07:37:52.372Z,99535.72
2023-03-13T07:40:18.988Z,99534.03
2023-03-13T07:42:45.546Z,99518.00
2023-03-13T07:45:12.159Z,99508.16
2023-03-13T07:47:38.693Z,99530.09
2023-03-13T07:50:05.723Z,99539.84
2023-03-13T07:52:32.554Z,99493.00
2023-03-13T07:54:59.135Z,99495.47
2023-03-13T07:57:25.638Z,99458.50
2023-03-13T07:59:52.188Z,99466.38
2023-03-13T08:02:18.894Z,99488.28
2023-03-13T08:04:45.512Z,99506.63
2023-03-13T08:07:12.601Z,99460.28
2023-03-13T08:09:39.273Z,99435.69
2023-03-13T08:12:06.430Z,99534.44
2023-03-13T08:14:32.950Z,99533.69
2023-03-13T08:16:59.504Z,99453.56
2023-03-13T08:19:26.154Z,99464.16
2023-03-13T08:21:52.684Z,99535.97
2023-03-13T08:24:19.308Z,99520.75
2023-03-13T08:26:45.822Z,99524.00
2023-03-13T08:29:15.025Z,99528.28
2023-03-13T08:31:49.966Z,99496.31
2023-03-13T08:34:17.944Z,99530.50
2023-03-13T08:36:44.736Z,99508.22
2023-03-13T08:39:13.211Z,99451.75
2023-03-13T08:41:41.243Z,99512.50
2023-03-13T08:44:10.721Z,99503.69
2023-03-13T08:46:37.798Z,99480.72
2023-03-13T08:49:06.552Z,99494.03
2023-03-13T08:51:33.901Z,99517.69
2023-03-13T08:54:01.661Z,99503.31
2023-03-13T08:56:30.387Z,99497.63
2023-03-13T08:59:01.889Z,99447.50
2023-03-13T09:01:31.508Z,99501.97
2023-03-13T09:03:59.164Z,99495.22
2023-03-13T09:06:26.507Z,99523.66
2023-03-13T09:08:53.207Z,99531.88
2023-03-13T09:11:21.180Z,99445.63
2023-03-13T09:13:49.883Z,99444.34
2023-03-13T09:16:22.220Z,99432.47
2023-03-13T09:18:49.480Z,99449.91
2023-03-13T09:21:24.462Z,99492.19
2023-03-13T09:23:51.583Z,99488.66
2023-03-13T09:26:22.842Z,99456.13
2023-03-13T09:28:50.496Z,99443.94
2023-03-13T09:31:20.771Z,99436.66
2023-03-13T09:33:49.112Z,99453.41
2023-03-13T09:36:18.168Z,99448.06
2023-03-13T09:38:46.830Z,99377.81
2023-03-13T09:41:44.363Z,99452.06
2023-03-13T09:44:28.091Z,99451.13
2023-03-13T09:47:06.620Z,99381.69
2023-03-13T09:49:39.604Z,99451.47
2023-03-13T09:52:15.190Z,99428.78
2023-03-13T09:54:50.715Z,99344.13
2023-03-13T09:57:49.662Z,99416.72
2023-03-13T10:00:18.901Z,99410.53
2023-03-13T10:03:12.806Z,99339.94
2023-03-13T10:06:18.223Z,99418.78
2023-03-13T10:08:44.722Z,99354.28
2023-03-13T10:11:32.766Z,99393.81
2023-03-13T10:14:10.223Z,99412.09
2023-03-13T10:16:52.770Z,99374.31
2023-03-13T10:19:26.884Z,99414.84
2023-03-13T10:21:55.919Z,99381.41
2023-03-13T10:24:33.701Z,99408.56
2023-03-13T10:27:00.364Z,99296.59
2023-03-13T10:29:29.087Z,99307.75
2023-03-13T10:32:07.365Z,99382.53
2023-03-13T10:34:55.446Z,99396.69
2023-03-13T10:37:40.114Z,99357.28
2023-03-13T10:40:25.072Z,99335.34
2023-03-13T10:42:54.018Z,99300.91
2023-03-13T10:45:25.205Z,99375.13
2023-03-13T10:47:56.567Z,99355.09
2023-03-13T10:50:26.026Z,99370.31
2023-03-13T10:52:53.510Z,99358.38
2023-03-13T10:55:23.125Z,99269.22
2023-03-13T10:58:00.067Z,99373.50
2023-03-13T11:00:41.046Z,99285.28
2023-03-13T11:03:17.960Z,99377.00
2023-03-13T11:05:54.770Z,99354.91
2023-03-13T11:08:27.520Z,99375.31
2023-03-13T11:11:00.402Z,99354.16
2023-03-13T11:13:39.830Z,99300.63
2023-03-13T11:16:22.715Z,99295.25
2023-03-13T11:19:14.253Z,99333.75
2023-03-13T11:21:55.891Z,99346.63
2023-03-13T11:24:44.420Z,99351.47
2023-03-13T11:27:21.855Z,99327.09
2023-03-13T11:30:20.317Z,99325.09
2023-03-13T11:32:55.120Z,99316.63
2023-03-13T11:35:21.812Z,99328.72
2023-03-13T11:37:51.223Z,99314.16
2023-03-13T11:40:29.942Z,99295.00
2023-03-13T11:43:24.092Z,99317.34
2023-03-13T11:46:18.571Z,99310.69
2023-03-13T11:48:51.193Z,99286.75
2023-03-13T11:51:41.306Z,99268.00
2023-03-13T11:54:19.971Z,99315.28
2023-03-13T11:56:58.380Z,99255.06
2023-03-13T11:59:43.619Z,99287.28
2023-03-13T12:02:16.221Z,99260.41
2023-03-13T12:04:49.204Z,99290.06
2023-03-13T12:07:36.418Z,99193.53
2023-03-13T12:10:12.473Z,99179.50
2023-03-13T12:12:47.685Z,99196.16
2023-03-13T12:15:14.376Z,99245.09
2023-03-13T12:17:50.608Z,99229.75
2023-03-13T12:20:49.940Z,99236.78
2023-03-13T12:23:37.660Z,99243.06
2023-03-13T12:26:21.162Z,99175.69
2023-03-13T12:29:07.548Z,99235.50
2023-03-13T12:31:42.249Z,99221.44
2023-03-13T12:34:19.438Z,99235.75
2023-03-13T12:37:01.986Z,99241.63
2023-03-13T12:39:49.967Z,99212.84
2023-03-13T12:42:25.984Z,99200.94
2023-03-13T12:44:53.945Z,99186.84
2023-03-13T12:47:46.096Z,99137.22
2023-03-13T12:50:27.975Z,99226.66
2023-03-13T12:53:01.417Z,99146.25
2023-03-13T12:55:34.107Z,99190.22
2023-03-13T12:58:13.230Z,99198.09
2023-03-13T13:00:44.224Z,99194.13
2023-03-13T13:03:19.635Z,99129.91
2023-03-13T13:06:05.147Z,99177.97
2023-03-13T13:08:39.555Z,99183.50
2023-03-13T13:11:34.468Z,99177.09
2023-03-13T13:14:02.970Z,99106.69
2023-03-13T13:16:30.068Z,99159.13
2023-03-13T13:19:32.265Z,99190.59
2023-03-13T13:22:39.043Z,99184.59
2023-03-13T13:25:11.528Z,99186.25
2023-03-13T13:27:37.904Z,99173.50
2023-03-13T13:30:27.112Z,99173.03
2023-03-13T13:33:17.065Z,99171.88
2023-03-13T13:35:43.862Z,99175.53
2023-03-13T13:38:19.701Z,99161.94
2023-03-13T13:41:05.504Z,99164.94
2023-03-13T13:43:43.277Z,99159.44
2023-03-13T13:46:30.149Z,99149.25
2023-03-13T13:49:08.573Z,99159.34
2023-03-13T13:52:01.244Z,99176.97
2023-03-13T13:54:53.332Z,99125.44
2023-03-13T13:57:22.909Z,99114.06
2023-03-13T13:59:51.551Z,99109.03
2023-03-13T14:02:24.576Z,99118.69
2023-03-13T14:05:15.496Z,99119.09
2023-03-13T14:07:53.129Z,99110.72
2023-03-13T14:10:32.700Z,99066.69
2023-03-13T14:13:00.940Z,99118.13
2023-03-13T14:15:30.096Z,99120.44
2023-03-13T14:18:20.636Z,99123.78
2023-03-13T14:21:14.167Z,99107.31
2023-03-13T14:23:44.214Z,99095.66
2023-03-13T14:26:24.542Z,99110.75
2023-03-13T14:28:59.268Z,99092.19
2023-03-13T14:31:28.837Z,99090.88
2023-03-13T14:34:00.350Z,99083.66
2023-03-13T14:36:28.138Z,99024.25
2023-03-13T14:38:59.821Z,99073.31
2023-03-13T14:41:41.591Z,99008.66
2023-03-13T14:44:19.788Z,99067.69
2023-03-13T14:46:47.042Z,99070.50
2023-03-13T14:49:20.854Z,99050.84
2023-03-13T14:52:17.309Z,99058.97
2023-03-13T14:55:04.150Z,99066.41
2023-03-13T14:57:31.994Z,99060.56
2023-03-13T15:00:36.273Z,99060.41
2023-03-13T15:03:20.159Z,99047.59
2023-03-13T15:06:02.830Z,99038.78
2023-03-13T15:08:29.910Z,98986.81
2023-03-13T15:10:56.931Z,98965.66
2023-03-13T15:13:26.393Z,99019.47
2023-03-13T15:15:53.130Z,99035.97
2023-03-13T15:18:25.338Z,99017.34
2023-03-13T15:20:58.058Z,98972.59
2023-03-13T15:23:25.178Z,99030.78
2023-03-13T15:25:51.998Z,98947.59
2023-03-13T15:28:21.631Z,98941.94
2023-03-13T15:30:53.988Z,98999.44
2023-03-13T15:33:22.054Z,99022.75
2023-03-13T15:35:49.453Z,99017.41
2023-03-13T15:38:22.530Z,98904.41
2023-03-13T15:40:50.266Z,99019.00
2023-03-13T15:43:17.303Z,99017.00
2023-03-13T15:45:45.643Z,98998.56
2023-03-13T15:48:16.369Z,98930.91
2023-03-13T15:50:43.974Z,98984.81
2023-03-13T15:53:26.416Z,98985.41
2023-03-13T15:55:55.245Z,98956.84
2023-03-13T15:58:22.059Z,98891.56
2023-03-13T16:00:49.209Z,98977.84
2023-03-13T16:03:28.868Z,98954.56
2023-03-13T16:05:56.687Z,98882.41
2023-03-13T16:08:35.215Z,98853.41
2023-03-13T16:11:03.111Z,98902.78
2023-03-13T16:13:29.671Z,98896.22
2023-03-13T16:15:56.599Z,98901.91
2023-03-13T16:18:24.378Z,98852.59
2023-03-13T16:20:51.991Z,98863.22
2023-03-13T16:23:18.527Z,98892.69
2023-03-13T16:25:47.271Z,98910.34
2023-03-13T16:28:14.710Z,98834.59
2023-03-13T16:30:43.738Z,98848.34
2023-03-13T16:33:11.456Z,98900.84
2023-03-13T16:35:39.174Z,98915.53
2023-03-13T16:38:08.373Z,98869.13
2023-03-13T16:40:35.549Z,98905.94
2023-03-13T16:43:02.244Z,98885.09
2023-03-13T16:45:28.784Z,98895.97
2023-03-13T16:47:55.355Z,98837.03
2023-03-13T16:50:23.589Z,98899.13
2023-03-13T16:52:51.531Z,98832.75
2023-03-13T16:55:19.804Z,98897.56
2023-03-13T16:57:46.373Z,98809.88
2023-03-13T17:00:19.085Z,98823.28
2023-03-13T17:02:45.965Z,98882.91
2023-03-13T17:05:15.718Z,98913.38
2023-03-13T17:07:44.507Z,98904.03
2023-03-13T17:10:21.668Z,98908.44
2023-03-13T17:12:48.379Z,98892.81
2023-03-13T17:15:15.410Z,98794.28
2023-03-13T17:17:44.246Z,98926.09
2023-03-13T17:20:15.847Z,98916.19
2023-03-13T17:22:42.665Z,98894.00
2023-03-13T17:25:10.021Z,98913.28
2023-03-13T17:27:37.188Z,98832.47
2023-03-13T17:30:16.184Z,98817.13
2023-03-13T17:32:42.770Z,98924.78
2023-03-13T17:35:10.419Z,98818.38
2023-03-13T17:37:37.007Z,98884.63
2023-03-13T17:40:14.825Z,98906.78
2023-03-13T17:42:41.414Z,98902.66
2023-03-13T17:45:08.720Z,98910.03
2023-03-13T17:47:35.243Z,98821.94
2023-03-13T17:50:01.914Z,98826.81
2023-03-13T17:52:28.525Z,98883.88
2023-03-13T17:54:55.104Z,98892.56
2023-03-13T17:57:22.577Z,98917.47
2023-03-13T17:59:49.599Z,98893.13
2023-03-13T18:02:17.755Z,98881.84
2023-03-13T18:04:45.109Z,98802.28
2023-03-13T18:07:24.233Z,98908.28
2023-03-13T18:09:50.740Z,98897.59
2023-03-13T18:12:18.250Z,98910.03
2023-03-13T18:14:44.940Z,98878.69
2023-03-13T18:17:20.694Z,98809.06
2023-03-13T18:19:48.744Z,98906.28
2023-03-13T18:22:25.270Z,98884.56
2023-03-13T18:24:51.877Z,98890.66
2023-03-13T18:27:20.997Z,98885.22
2023-03-13T18:29:49.057Z,98875.75
2023-03-13T18:32:17.636Z,98885.63
2023-03-13T18:34:44.893Z,98782.75
2023-03-13T18:37:21.862Z,98872.03
2023-03-13T18:39:49.988Z,98792.00
2023-03-13T18:42:17.035Z,98863.94
2023-03-13T18:44:43.565Z,98772.38
2023-03-13T18:47:12.586Z,98852.09
2023-03-13T18:49:39.507Z,98850.53
2023-03-13T18:52:06.199Z,98768.91
2023-03-13T18:54:32.741Z,98875.94
2023-03-13T18:56:59.404Z,98871.00
2023-03-13T18:59:26.232Z,98858.69
2023-03-13T19:01:53.981Z,98848.47
2023-03-13T19:04:20.820Z,98846.75
2023-03-13T19:06:48.227Z,98844.38
2023-03-13T19:09:41.488Z,98854.09
2023-03-13T19:12:04.268Z,98868.16
2023-03-13T19:14:30.954Z,98845.34
2023-03-13T19:16:58.102Z,98855.16
2023-03-13T19:19:25.758Z,98846.44
2023-03-13T19:21:55.511Z,98833.25
2023-03-13T19:24:26.541Z,98842.91
2023-03-13T19:26:58.440Z,98842.47
2023-03-13T19:29:27.589Z,98767.47
2023-03-13T19:31:54.808Z,98759.84
2023-03-13T19:34:21.512Z,98841.22
2023-03-13T19:36:49.539Z,98842.25
2023-03-13T19:39:21.491Z,98794.41
2023-03-13T19:41:48.442Z,98841.53
2023-03-13T19:44:16.929Z,98815.22
2023-03-13T19:46:43.784Z,98785.47
2023-03-13T19:49:16.335Z,98745.25
2023-03-13T19:51:42.745Z,98834.28
2023-03-13T19:54:10.842Z,98758.03
2023-03-13T19:56:39.349Z,98843.50
2023-03-13T19:59:17.922Z,98828.50
2023-03-13T20:01:44.948Z,98825.72
2023-03-13T20:04:11.906Z,98655.75
2023-03-13T20:06:39.779Z,98829.59
2023-03-13T20:09:11.950Z,98760.56
2023-03-13T20:11:38.921Z,98822.59
2023-03-13T20:14:06.138Z,98844.66
2023-03-13T20:16:34.963Z,98858.69
2023-03-13T20:19:02.008Z,98851.53
2023-03-13T20:21:30.577Z,98863.28
2023-03-13T20:23:58.506Z,98765.34
2023-03-13T20:26:26.232Z,98819.66
2023-03-13T20:28:53.636Z,98829.53
2023-03-13T20:31:22.530Z,98837.50
2023-03-13T20:33:49.059Z,98837.56
2023-03-13T20:36:19.522Z,98817.38
2023-03-13T20:38:46.482Z,98831.47
2023-03-13T20:41:13.543Z,98770.44
2023-03-13T20:43:40.032Z,98836.84
2023-03-13T20:46:07.237Z,98792.19
2023-03-13T20:48:39.267Z,98854.00
2023-03-13T20:51:08.024Z,98753.09
2023-03-13T20:53:39.697Z,98711.25
2023-03-13T20:56:07.553Z,98858.09
2023-03-13T20:58:35.425Z,98832.53
2023-03-13T21:01:04.375Z,98840.31
2023-03-13T21:03:35.076Z,98826.22
2023-03-13T21:06:18.437Z,98831.66
2023-03-13T21:08:46.972Z,98756.81
2023-03-13T21:11:22.922Z,98749.13
2023-03-13T21:13:50.631Z,98773.34
2023-03-13T21:16:19.028Z,98836.91
2023-03-13T21:18:46.075Z,98853.53
2023-03-13T21:21:18.897Z,98775.50
2023-03-13T21:23:46.368Z,98855.09
2023-03-13T21:26:13.829Z,98848.91
2023-03-13T21:28:40.747Z,98855.91
2023-03-13T21:31:14.118Z,98745.72
2023-03-13T21:33:42.119Z,98805.44
2023-03-13T21:36:10.023Z,98833.81
2023-03-13T21:38:36.563Z,98735.22
2023-03-13T21:41:08.072Z,98814.66
2023-03-13T21:43:34.631Z,98722.06
2023-03-13T21:46:01.194Z,98793.38
2023-03-13T21:48:27.715Z,98787.25
2023-03-13T21:50:54.213Z,98782.81
2023-03-13T21:53:21.139Z,98756.75
2023-03-13T21:55:51.820Z,98807.44
2023-03-13T21:58:18.748Z,98788.72
2023-03-13T22:00:45.647Z,98791.06
2023-03-13T22:03:12.347Z,98684.25
2023-03-13T22:05:43.797Z,98794.53
2023-03-13T22:08:11.046Z,98796.22
2023-03-13T22:10:38.549Z,98790.88
2023-03-13T22:13:06.760Z,98714.25
2023-03-13T22:15:33.334Z,98785.16
2023-03-13T22:18:00.057Z,98784.31
2023-03-13T22:20:27.511Z,98743.41
2023-03-13T22:22:54.119Z,98763.75
2023-03-13T22:25:20.666Z,98772.47
2023-03-13T22:27:47.212Z,98767.41
2023-03-13T22:30:14.390Z,98715.97
2023-03-13T22:32:40.988Z,98780.59
2023-03-13T22:35:08.108Z,98680.25
2023-03-13T22:37:34.666Z,98713.59
2023-03-13T22:40:01.229Z,98699.53
2023-03-13T22:42:27.808Z,98769.84
2023-03-13T22:44:55.577Z,98752.22
2023-03-13T22:47:22.673Z,98753.88
2023-03-13T22:49:50.333Z,98778.47
2023-03-13T22:52:16.880Z,98674.66
2023-03-13T22:54:46.331Z,98689.84
2023-03-13T22:57:13.440Z,98758.09
2023-03-13T22:59:40.026Z,98791.19
2023-03-13T23:02:06.584Z,98791.88
2023-03-13T23:04:33.145Z,98790.13
2023-03-13T23:06:59.657Z,98795.28
2023-03-13T23:09:26.188Z,98792.53
2023-03-13T23:11:52.727Z,98703.31
2023-03-13T23:14:19.256Z,98769.50
2023-03-13T23:16:45.918Z,98774.03
2023-03-13T23:19:12.397Z,98744.03
2023-03-13T23:21:39.151Z,98741.50
2023-03-13T23:24:05.924Z,98742.47
2023-03-13T23:26:32.434Z,98743.44
2023-03-13T23:28:58.974Z,98734.84
2023-03-13T23:31:25.497Z,98659.63
2023-03-13T23:33:51.997Z,98666.47
2023-03-13T23:36:19.547Z,98730.88
2023-03-13T23:38:51.122Z,98725.53
2023-03-13T23:41:18.630Z,98732.69
2023-03-13T23:43:45.279Z,98720.59
2023-03-13T23:46:22.812Z,98741.66
2023-03-13T23:48:52.988Z,98736.19
2023-03-13T23:51:19.536Z,98737.84
2023-03-13T23:53:46.195Z,98653.09
2023-03-13T23:56:13.022Z,98639.53
2023-03-13T23:58:39.973Z,98726.81
